createdAt,value
2023-01-09T00:02:12.680Z,100670.22
2023-01-09T00:04:45.659Z,100666.56
2023-01-09T00:07:18.534Z,100662.13
2023-01-09T00:09:51.257Z,100665.56
2023-01-09T00:12:24.167Z,100675.91
2023-01-09T00:15:00.600Z,100662.91
2023-01-09T00:17:33.507Z,100666.91
2023-01-09T00:20:07.575Z,100664.88
2023-01-09T00:22:40.515Z,100654.19
2023-01-09T00:25:13.258Z,100646.31
2023-01-09T00:27:46.119Z,100647.91
2023-01-09T00:30:21.664Z,100647.50
2023-01-09T00:32:57.689Z,100637.00
2023-01-09T00:35:30.894Z,100643.47
2023-01-09T00:38:03.766Z,100640.22
2023-01-09T00:40:36.573Z,100637.41
2023-01-09T00:43:11.370Z,100640.03
2023-01-09T00:45:44.477Z,100632.72
2023-01-09T00:48:18.839Z,100642.66
2023-01-09T00:50:51.705Z,100640.22
2023-01-09T00:53:27.833Z,100629.25
2023-01-09T00:56:04.275Z,100644.25
2023-01-09T00:58:37.256Z,100652.75
2023-01-09T01:01:10.141Z,100653.22
2023-01-09T01:03:43.158Z,100650.97
2023-01-09T01:06:15.977Z,100640.41
2023-01-09T01:08:49.121Z,100641.19
2023-01-09T01:11:22.091Z,100645.06
2023-01-09T01:13:54.785Z,100648.94
2023-01-09T01:16:27.975Z,100642.66
2023-01-09T01:19:00.710Z,100639.41
2023-01-09T01:21:33.654Z,100632.13
2023-01-09T01:24:07.283Z,100625.03
2023-01-09T01:26:40.101Z,100616.69
2023-01-09T01:29:13.817Z,100608.34
2023-01-09T01:31:47.032Z,100605.72
2023-01-09T01:34:19.822Z,100604.53
2023-01-09T01:36:53.585Z,100598.84
2023-01-09T01:39:27.126Z,100591.53
2023-01-09T01:41:59.778Z,100597.19
2023-01-09T01:44:51.072Z,100591.81
2023-01-09T01:47:28.667Z,100588.25
2023-01-09T01:50:04.134Z,100592.09
2023-01-09T01:52:37.394Z,100596.00
2023-01-09T01:55:11.822Z,100590.94
2023-01-09T01:57:48.334Z,100597.16
2023-01-09T02:00:27.208Z,100591.44
2023-01-09T02:03:02.095Z,100591.09
2023-01-09T02:05:36.477Z,100586.25
2023-01-09T02:08:09.936Z,100593.72
2023-01-09T02:10:42.857Z,100578.94
2023-01-09T02:13:16.247Z,100587.03
2023-01-09T02:15:56.541Z,100585.81
2023-01-09T02:18:46.327Z,100579.25
2023-01-09T02:21:24.584Z,100576.22
2023-01-09T02:24:15.567Z,100582.09
2023-01-09T02:26:54.773Z,100588.19
2023-01-09T02:29:33.427Z,100586.78
2023-01-09T02:32:25.369Z,100575.78
2023-01-09T02:35:04.267Z,100571.94
2023-01-09T02:37:40.044Z,100565.88
2023-01-09T02:40:29.317Z,100569.06
2023-01-09T02:43:02.703Z,100562.94
2023-01-09T02:45:35.443Z,100567.03
2023-01-09T02:48:10.324Z,100563.09
2023-01-09T02:51:01.957Z,100567.16
2023-01-09T02:53:43.896Z,100567.38
2023-01-09T02:56:39.973Z,100568.03
2023-01-09T02:59:18.942Z,100556.22
2023-01-09T03:02:00.006Z,100560.47
2023-01-09T03:04:56.209Z,100556.63
2023-01-09T03:07:41.756Z,100550.09
2023-01-09T03:10:23.304Z,100543.56
2023-01-09T03:12:59.065Z,100543.22
2023-01-09T03:15:34.311Z,100536.03
2023-01-09T03:18:09.288Z,100528.06
2023-01-09T03:20:42.676Z,100529.63
2023-01-09T03:23:15.441Z,100538.16
2023-01-09T03:25:48.322Z,100533.66
2023-01-09T03:28:30.617Z,100530.56
2023-01-09T03:31:03.471Z,100535.28
2023-01-09T03:33:36.464Z,100531.53
2023-01-09T03:36:10.165Z,100530.50
2023-01-09T03:38:43.200Z,100529.25
2023-01-09T03:41:16.185Z,100533.25
2023-01-09T03:43:48.865Z,100533.19
2023-01-09T03:46:21.627Z,100536.47
2023-01-09T03:48:54.482Z,100527.88
2023-01-09T03:51:27.121Z,100528.94
2023-01-09T03:54:00.222Z,100520.72
2023-01-09T03:56:33.251Z,100516.25
2023-01-09T03:59:06.087Z,100519.81
2023-01-09T04:01:39.205Z,100516.03
2023-01-09T04:04:12.283Z,100511.16
2023-01-09T04:06:45.251Z,100508.59
2023-01-09T04:09:18.111Z,100511.88
2023-01-09T04:11:50.958Z,100511.47
2023-01-09T04:14:23.735Z,100517.00
2023-01-09T04:16:56.482Z,100509.44
2023-01-09T04:19:29.344Z,100512.28
2023-01-09T04:22:02.401Z,100510.31
2023-01-09T04:24:35.193Z,100507.06
2023-01-09T04:27:08.416Z,100499.78
2023-01-09T04:29:41.185Z,100510.31
2023-01-09T04:32:14.270Z,100505.38
2023-01-09T04:34:47.169Z,100496.09
2023-01-09T04:37:20.288Z,100494.91
2023-01-09T04:39:54.013Z,100490.91
2023-01-09T04:42:27.193Z,100493.69
2023-01-09T04:45:00.337Z,100497.53
2023-01-09T04:47:33.593Z,100495.97
2023-01-09T04:50:07.396Z,100492.56
2023-01-09T04:52:40.828Z,100491.38
2023-01-09T04:55:13.604Z,100490.00
2023-01-09T04:57:46.712Z,100485.78
2023-01-09T05:00:19.705Z,100482.56
2023-01-09T05:02:52.730Z,100483.56
2023-01-09T05:05:28.979Z,100491.66
2023-01-09T05:08:15.624Z,100488.78
2023-01-09T05:10:48.397Z,100493.31
2023-01-09T05:13:21.327Z,100485.13
2023-01-09T05:15:54.299Z,100478.16
2023-01-09T05:18:27.759Z,100482.59
2023-01-09T05:21:01.626Z,100488.94
2023-01-09T05:23:35.397Z,100478.91
2023-01-09T05:26:08.760Z,100487.34
2023-01-09T05:28:42.340Z,100482.25
2023-01-09T05:31:16.192Z,100485.59
2023-01-09T05:33:49.376Z,100478.88
2023-01-09T05:36:22.569Z,100471.97
2023-01-09T05:38:55.737Z,100477.34
2023-01-09T05:41:28.735Z,100478.00
2023-01-09T05:44:01.951Z,100470.44
2023-01-09T05:46:34.684Z,100479.28
2023-01-09T05:49:10.870Z,100468.31
2023-01-09T05:51:43.817Z,100478.91
2023-01-09T05:54:16.703Z,100482.53
2023-01-09T05:56:49.582Z,100476.50
2023-01-09T05:59:23.690Z,100462.53
2023-01-09T06:01:56.506Z,100458.50
2023-01-09T06:04:32.069Z,100463.03
2023-01-09T06:07:08.683Z,100457.50
2023-01-09T06:09:45.043Z,100462.56
2023-01-09T06:12:12.590Z,100458.09
2023-01-09T06:14:48.129Z,100464.41
2023-01-09T06:17:21.718Z,100476.59
2023-01-09T06:19:54.654Z,100467.47
2023-01-09T06:22:30.236Z,100456.00
2023-01-09T06:25:03.408Z,100459.94
2023-01-09T06:27:36.614Z,100461.66
2023-01-09T06:30:10.241Z,100457.06
2023-01-09T06:32:43.764Z,100455.19
2023-01-09T06:35:17.431Z,100458.91
2023-01-09T06:37:50.388Z,100459.28
2023-01-09T06:40:26.733Z,100462.03
2023-01-09T06:43:02.053Z,100464.66
2023-01-09T06:45:34.797Z,100469.41
2023-01-09T06:48:08.139Z,100469.22
2023-01-09T06:50:43.779Z,100472.88
2023-01-09T06:53:19.429Z,100469.47
2023-01-09T06:55:53.213Z,100465.31
2023-01-09T06:58:29.521Z,100469.16
2023-01-09T07:01:07.003Z,100471.84
2023-01-09T07:03:40.151Z,100484.25
2023-01-09T07:06:14.176Z,100480.25
2023-01-09T07:08:48.005Z,100480.50
2023-01-09T07:11:20.993Z,100487.53
2023-01-09T07:13:53.898Z,100486.75
2023-01-09T07:16:26.868Z,100492.22
2023-01-09T07:19:03.244Z,100499.44
2023-01-09T07:21:39.375Z,100497.97
2023-01-09T07:24:12.168Z,100496.84
2023-01-09T07:26:44.997Z,100495.94
2023-01-09T07:29:18.012Z,100502.78
2023-01-09T07:31:57.148Z,100499.03
2023-01-09T07:34:30.005Z,100490.00
2023-01-09T07:37:03.377Z,100497.06
2023-01-09T07:39:40.683Z,100502.41
2023-01-09T07:42:13.732Z,100490.81
2023-01-09T07:44:50.435Z,100485.03
2023-01-09T07:47:23.308Z,100480.09
2023-01-09T07:49:59.210Z,100478.56
2023-01-09T07:52:32.016Z,100480.19
2023-01-09T07:55:10.375Z,100485.16
2023-01-09T07:57:51.926Z,100479.22
2023-01-09T08:00:26.791Z,100483.75
2023-01-09T08:03:00.236Z,100488.66
2023-01-09T08:05:38.551Z,100490.66
2023-01-09T08:08:11.559Z,100477.34
2023-01-09T08:10:44.778Z,100471.75
2023-01-09T08:13:17.613Z,100471.84
2023-01-09T08:15:50.825Z,100467.84
2023-01-09T08:18:23.969Z,100465.47
2023-01-09T08:20:56.741Z,100459.47
2023-01-09T08:23:29.532Z,100458.66
2023-01-09T08:26:02.686Z,100461.00
2023-01-09T08:28:29.135Z,100457.22
2023-01-09T08:31:14.630Z,100476.69
2023-01-09T08:33:59.680Z,100484.91
2023-01-09T08:36:44.610Z,100468.69
2023-01-09T08:39:29.575Z,100463.09
2023-01-09T08:42:14.358Z,100442.91
2023-01-09T08:45:02.280Z,100437.38
2023-01-09T08:47:47.119Z,100424.97
2023-01-09T08:50:31.970Z,100429.03
2023-01-09T08:53:16.911Z,100431.25
2023-01-09T08:56:01.843Z,100446.44
2023-01-09T08:58:46.711Z,100457.91
2023-01-09T09:01:31.924Z,100469.06
2023-01-09T09:04:16.964Z,100472.88
2023-01-09T09:07:01.863Z,100462.84
2023-01-09T09:09:46.779Z,100458.16
2023-01-09T09:12:31.750Z,100444.34
2023-01-09T09:15:16.797Z,100437.44
2023-01-09T09:17:52.968Z,100435.28
2023-01-09T09:20:24.107Z,100422.13
2023-01-09T09:22:51.521Z,100414.88
2023-01-09T09:25:19.772Z,100418.47
2023-01-09T09:27:47.798Z,100418.47
2023-01-09T09:30:16.331Z,100415.22
2023-01-09T09:32:44.381Z,100405.19
2023-01-09T09:35:12.759Z,100399.34
2023-01-09T09:37:40.234Z,100384.38
2023-01-09T09:40:18.746Z,100378.91
2023-01-09T09:43:01.762Z,100381.91
2023-01-09T09:45:41.047Z,100375.25
2023-01-09T09:48:27.067Z,100358.94
2023-01-09T09:51:09.949Z,100362.72
2023-01-09T09:53:45.575Z,100364.22
2023-01-09T09:56:16.542Z,100361.75
2023-01-09T09:58:53.723Z,100358.03
2023-01-09T10:01:24.429Z,100349.47
2023-01-09T10:04:00.522Z,100348.06
2023-01-09T10:06:34.689Z,100347.19
2023-01-09T10:09:20.717Z,100336.63
2023-01-09T10:12:05.755Z,100338.28
2023-01-09T10:14:33.523Z,100337.47
2023-01-09T10:17:03.903Z,100344.13
2023-01-09T10:19:53.000Z,100331.66
2023-01-09T10:22:39.130Z,100331.00
2023-01-09T10:25:06.717Z,100329.53
2023-01-09T10:27:52.912Z,100320.28
2023-01-09T10:30:32.643Z,100313.81
2023-01-09T10:33:00.709Z,100307.41
2023-01-09T10:35:47.249Z,100305.91
2023-01-09T10:38:19.959Z,100299.56
2023-01-09T10:40:53.845Z,100304.59
2023-01-09T10:43:34.281Z,100303.66
2023-01-09T10:46:04.912Z,100291.56
2023-01-09T10:48:33.782Z,100278.06
2023-01-09T10:51:02.124Z,100274.69
2023-01-09T10:53:29.504Z,100272.84
2023-01-09T10:56:01.178Z,100276.47
2023-01-09T10:58:28.897Z,100268.38
2023-01-09T11:00:56.675Z,100259.84
2023-01-09T11:03:27.183Z,100261.97
2023-01-09T11:05:56.760Z,100257.44
2023-01-09T11:08:42.921Z,100254.50
2023-01-09T11:11:10.769Z,100246.38
2023-01-09T11:13:38.776Z,100233.75
2023-01-09T11:16:22.484Z,100242.53
2023-01-09T11:18:52.125Z,100251.28
2023-01-09T11:21:31.651Z,100253.09
2023-01-09T11:24:17.139Z,100257.16
2023-01-09T11:26:45.108Z,100253.25
2023-01-09T11:29:16.301Z,100260.03
2023-01-09T11:31:50.765Z,100261.53
2023-01-09T11:34:25.136Z,100269.00
2023-01-09T11:36:53.709Z,100264.66
2023-01-09T11:39:35.353Z,100266.44
2023-01-09T11:42:04.198Z,100253.91
2023-01-09T11:44:32.060Z,100252.06
2023-01-09T11:47:23.786Z,100234.34
2023-01-09T11:49:51.423Z,100228.06
2023-01-09T11:52:19.711Z,100220.69
2023-01-09T11:54:52.272Z,100217.81
2023-01-09T11:57:20.392Z,100202.53
2023-01-09T11:59:47.486Z,100210.81
2023-01-09T12:02:37.738Z,100211.50
2023-01-09T12:05:13.152Z,100202.63
2023-01-09T12:07:49.623Z,100204.00
2023-01-09T12:10:26.325Z,100201.81
2023-01-09T12:13:02.412Z,100192.59
2023-01-09T12:15:47.988Z,100184.53
2023-01-09T12:18:15.674Z,100182.63
2023-01-09T12:20:55.240Z,100182.41
2023-01-09T12:23:25.672Z,100170.53
2023-01-09T12:25:55.715Z,100168.34
2023-01-09T12:28:36.241Z,100172.84
2023-01-09T12:31:25.799Z,100159.72
2023-01-09T12:34:01.898Z,100144.88
2023-01-09T12:36:28.978Z,100142.34
2023-01-09T12:39:06.796Z,100143.28
2023-01-09T12:42:00.127Z,100140.06
2023-01-09T12:44:40.972Z,100148.13
2023-01-09T12:47:13.778Z,100146.06
2023-01-09T12:49:49.053Z,100146.16
2023-01-09T12:52:25.971Z,100141.09
2023-01-09T12:54:56.500Z,100121.91
2023-01-09T12:57:29.663Z,100121.88
2023-01-09T13:00:29.160Z,100123.72
2023-01-09T13:03:12.531Z,100113.50
2023-01-09T13:05:52.846Z,100113.16
2023-01-09T13:08:36.158Z,100098.78
2023-01-09T13:11:19.381Z,100104.28
2023-01-09T13:13:51.360Z,100113.50
2023-01-09T13:16:29.102Z,100109.84
2023-01-09T13:19:00.989Z,100093.22
2023-01-09T13:21:28.584Z,100106.00
2023-01-09T13:24:12.002Z,100100.28
2023-01-09T13:26:45.159Z,100107.28
2023-01-09T13:29:12.403Z,100100.59
2023-01-09T13:31:39.612Z,100108.22
2023-01-09T13:34:21.496Z,100112.22
2023-01-09T13:36:51.248Z,100107.84
2023-01-09T13:39:29.191Z,100114.75
2023-01-09T13:42:04.271Z,100110.63
2023-01-09T13:44:33.616Z,100129.13
2023-01-09T13:47:02.097Z,100132.91
2023-01-09T13:49:33.990Z,100141.56
2023-01-09T13:52:24.285Z,100139.84
2023-01-09T13:54:54.040Z,100127.53
2023-01-09T13:57:21.071Z,100106.38
2023-01-09T13:59:48.376Z,100104.03
2023-01-09T14:02:34.078Z,100111.16
2023-01-09T14:05:10.867Z,100112.00
2023-01-09T14:07:47.638Z,100106.69
2023-01-09T14:10:34.161Z,100107.28
2023-01-09T14:13:06.712Z,100101.75
2023-01-09T14:15:38.737Z,100097.06
2023-01-09T14:18:07.683Z,100092.09
2023-01-09T14:20:39.020Z,100085.66
2023-01-09T14:23:28.242Z,100084.19
2023-01-09T14:25:53.948Z,100086.72
2023-01-09T14:28:25.632Z,100094.75
2023-01-09T14:30:52.770Z,100098.78
2023-01-09T14:33:19.787Z,100085.22
2023-01-09T14:35:47.704Z,100080.94
2023-01-09T14:38:16.964Z,100069.78
2023-01-09T14:40:46.396Z,100067.47
2023-01-09T14:43:22.636Z,100072.22
2023-01-09T14:45:50.090Z,100068.91
2023-01-09T14:48:17.995Z,100060.38
2023-01-09T14:50:48.565Z,100076.72
2023-01-09T14:53:20.414Z,100078.66
2023-01-09T14:55:53.541Z,100073.25
2023-01-09T14:58:27.670Z,100081.19
2023-01-09T15:00:54.712Z,100081.06
2023-01-09T15:03:22.810Z,100068.97
2023-01-09T15:05:50.459Z,100057.63
2023-01-09T15:08:20.440Z,100063.69
2023-01-09T15:10:48.284Z,100066.94
2023-01-09T15:13:19.664Z,100056.25
2023-01-09T15:15:48.580Z,100052.69
2023-01-09T15:18:20.949Z,100055.22
2023-01-09T15:20:51.862Z,100053.91
2023-01-09T15:23:21.031Z,100057.38
2023-01-09T15:25:48.057Z,100049.34
2023-01-09T15:28:45.456Z,100026.78
2023-01-09T15:31:14.952Z,100032.19
2023-01-09T15:33:43.572Z,100034.38
2023-01-09T15:36:12.709Z,100029.69
2023-01-09T15:38:41.706Z,100030.00
2023-01-09T15:41:10.771Z,100023.47
2023-01-09T15:43:45.019Z,100016.09
2023-01-09T15:46:15.545Z,100018.84
2023-01-09T15:48:42.725Z,100009.72
2023-01-09T15:51:11.698Z,100019.84
2023-01-09T15:53:42.148Z,100017.81
2023-01-09T15:56:12.278Z,100015.84
2023-01-09T15:58:40.772Z,100007.34
2023-01-09T16:01:23.026Z,99997.63
2023-01-09T16:03:50.187Z,99980.16
2023-01-09T16:06:24.699Z,99976.22
2023-01-09T16:08:52.971Z,99980.69
2023-01-09T16:11:40.465Z,99978.38
2023-01-09T16:14:16.634Z,99986.50
2023-01-09T16:16:44.300Z,99976.44
2023-01-09T16:19:33.541Z,99977.97
2023-01-09T16:22:02.414Z,99964.34
2023-01-09T16:24:56.287Z,99973.63
2023-01-09T16:27:23.356Z,99974.56
2023-01-09T16:29:51.270Z,99975.81
2023-01-09T16:32:29.250Z,99966.00
2023-01-09T16:35:04.642Z,99964.28
2023-01-09T16:37:33.943Z,99968.34
2023-01-09T16:40:16.565Z,99967.78
2023-01-09T16:42:49.726Z,99964.28
2023-01-09T16:45:16.872Z,99963.94
2023-01-09T16:47:45.164Z,99964.47
2023-01-09T16:50:13.543Z,99968.72
2023-01-09T16:52:40.599Z,99972.28
2023-01-09T16:55:07.845Z,99966.44
2023-01-09T16:57:35.235Z,99974.94
2023-01-09T17:00:02.692Z,99965.53
2023-01-09T17:02:29.774Z,99962.44
2023-01-09T17:04:57.885Z,99957.63
2023-01-09T17:07:25.055Z,99964.97
2023-01-09T17:09:52.231Z,99951.72
2023-01-09T17:12:20.539Z,99960.56
2023-01-09T17:14:48.338Z,99950.00
2023-01-09T17:17:16.136Z,99957.97
2023-01-09T17:19:43.941Z,99960.63
2023-01-09T17:22:11.006Z,99954.06
2023-01-09T17:24:38.071Z,99948.13
2023-01-09T17:27:05.350Z,99945.91
2023-01-09T17:29:33.225Z,99942.69
2023-01-09T17:32:03.350Z,99949.91
2023-01-09T17:34:30.409Z,99942.09
2023-01-09T17:36:57.498Z,99939.94
2023-01-09T17:39:25.182Z,99926.59
2023-01-09T17:41:52.231Z,99923.09
2023-01-09T17:44:19.985Z,99928.69
2023-01-09T17:46:47.056Z,99925.69
2023-01-09T17:49:15.774Z,99921.38
2023-01-09T17:51:42.814Z,99930.00
2023-01-09T17:54:09.838Z,99922.78
2023-01-09T17:56:38.124Z,99919.47
2023-01-09T17:59:05.202Z,99921.06
2023-01-09T18:01:32.490Z,99912.09
2023-01-09T18:03:59.523Z,99899.16
2023-01-09T18:06:26.578Z,99899.72
2023-01-09T18:08:53.646Z,99897.63
2023-01-09T18:11:21.627Z,99894.88
2023-01-09T18:13:49.831Z,99895.56
2023-01-09T18:16:18.919Z,99889.03
2023-01-09T18:18:46.360Z,99894.63
2023-01-09T18:21:17.952Z,99885.78
2023-01-09T18:23:49.995Z,99884.88
2023-01-09T18:26:17.687Z,99873.81
2023-01-09T18:28:44.745Z,99871.56
2023-01-09T18:31:11.879Z,99872.09
2023-01-09T18:33:39.199Z,99870.00
2023-01-09T18:36:07.576Z,99874.16
2023-01-09T18:38:34.774Z,99873.22
2023-01-09T18:41:06.344Z,99862.69
2023-01-09T18:43:33.394Z,99859.47
2023-01-09T18:46:05.297Z,99844.50
2023-01-09T18:48:32.757Z,99854.66
2023-01-09T18:51:03.621Z,99845.06
2023-01-09T18:53:31.408Z,99848.44
2023-01-09T18:56:01.963Z,99852.16
2023-01-09T18:58:29.087Z,99846.72
2023-01-09T19:00:56.388Z,99841.72
2023-01-09T19:03:41.779Z,99840.00
2023-01-09T19:06:27.510Z,99843.22
2023-01-09T19:09:12.968Z,99848.06
2023-01-09T19:11:57.826Z,99852.41
2023-01-09T19:14:42.586Z,99844.09
2023-01-09T19:17:27.526Z,99844.88
2023-01-09T19:20:12.856Z,99857.19
2023-01-09T19:22:57.709Z,99847.31
2023-01-09T19:25:43.592Z,99854.47
2023-01-09T19:28:28.409Z,99858.72
2023-01-09T19:31:14.224Z,99852.94
2023-01-09T19:33:59.205Z,99846.50
2023-01-09T19:36:44.603Z,99852.00
2023-01-09T19:39:29.529Z,99846.19
2023-01-09T19:42:14.485Z,99845.72
2023-01-09T19:44:59.845Z,99831.94
2023-01-09T19:47:44.756Z,99812.00
2023-01-09T19:50:29.732Z,99816.19
2023-01-09T19:53:15.421Z,99814.09
2023-01-09T19:56:14.103Z,99813.03
2023-01-09T19:59:00.153Z,99807.38
2023-01-09T20:01:45.341Z,99802.09
2023-01-09T20:04:30.411Z,99800.88
2023-01-09T20:07:15.263Z,99787.88
2023-01-09T20:10:00.589Z,99776.56
2023-01-09T20:12:45.642Z,99771.78
2023-01-09T20:15:30.671Z,99760.75
2023-01-09T20:18:15.611Z,99764.59
2023-01-09T20:21:01.219Z,99763.63
2023-01-09T20:23:46.073Z,99755.19
2023-01-09T20:26:32.354Z,99759.06
2023-01-09T20:29:17.878Z,99774.84
2023-01-09T20:32:03.087Z,99766.50
2023-01-09T20:34:48.185Z,99764.34
2023-01-09T20:37:32.936Z,99755.84
2023-01-09T20:40:17.840Z,99741.41
2023-01-09T20:43:03.492Z,99734.44
2023-01-09T20:45:48.635Z,99739.97
2023-01-09T20:48:33.826Z,99750.25
2023-01-09T20:51:18.651Z,99742.88
2023-01-09T20:54:04.006Z,99748.31
2023-01-09T20:56:49.145Z,99732.84
2023-01-09T20:59:34.371Z,99727.50
2023-01-09T21:02:19.959Z,99732.19
2023-01-09T21:05:04.987Z,99731.94
2023-01-09T21:07:50.079Z,99727.13
2023-01-09T21:10:38.333Z,99714.84
2023-01-09T21:13:23.874Z,99705.59
2023-01-09T21:16:10.268Z,99697.00
2023-01-09T21:18:55.532Z,99701.41
2023-01-09T21:21:40.674Z,99692.91
2023-01-09T21:24:25.376Z,99689.69
2023-01-09T21:27:10.069Z,99688.34
2023-01-09T21:29:54.940Z,99686.28
2023-01-09T21:32:39.806Z,99698.84
2023-01-09T21:35:24.691Z,99697.16
2023-01-09T21:38:09.432Z,99697.25
2023-01-09T21:40:54.488Z,99695.66
2023-01-09T21:43:39.527Z,99694.34
2023-01-09T21:46:24.431Z,99700.28
2023-01-09T21:49:09.282Z,99687.63
2023-01-09T21:51:55.156Z,99683.78
2023-01-09T21:54:40.563Z,99675.53
2023-01-09T21:57:25.374Z,99678.81
2023-01-09T22:00:13.829Z,99675.75
2023-01-09T22:02:58.714Z,99670.56
2023-01-09T22:05:43.755Z,99665.81
2023-01-09T22:08:28.955Z,99667.28
2023-01-09T22:11:16.093Z,99672.06
2023-01-09T22:14:01.469Z,99669.59
2023-01-09T22:16:47.204Z,99663.72
2023-01-09T22:19:32.613Z,99651.38
2023-01-09T22:22:17.427Z,99650.38
2023-01-09T22:25:02.050Z,99643.84
2023-01-09T22:27:29.242Z,99638.75
2023-01-09T22:29:57.488Z,99633.28
2023-01-09T22:32:24.508Z,99626.47
2023-01-09T22:34:51.496Z,99615.50
2023-01-09T22:37:18.499Z,99612.00
2023-01-09T22:39:45.468Z,99616.22
2023-01-09T22:42:12.734Z,99626.63
2023-01-09T22:44:39.757Z,99634.44
2023-01-09T22:47:06.741Z,99637.88
2023-01-09T22:49:51.972Z,99638.50
2023-01-09T22:52:20.460Z,99636.00
2023-01-09T22:54:47.773Z,99628.41
2023-01-09T22:57:14.812Z,99629.94
2023-01-09T22:59:41.982Z,99626.16
2023-01-09T23:02:09.077Z,99627.78
2023-01-09T23:04:36.671Z,99638.13
2023-01-09T23:07:03.810Z,99630.06
2023-01-09T23:09:30.921Z,99625.09
2023-01-09T23:11:58.112Z,99624.78
2023-01-09T23:14:25.356Z,99628.94
2023-01-09T23:16:52.679Z,99635.94
2023-01-09T23:19:20.057Z,99625.03
2023-01-09T23:21:47.603Z,99618.06
2023-01-09T23:24:16.529Z,99611.56
2023-01-09T23:26:44.087Z,99612.44
2023-01-09T23:29:12.895Z,99594.94
2023-01-09T23:31:40.227Z,99590.91
2023-01-09T23:34:07.388Z,99592.88
2023-01-09T23:36:34.758Z,99584.66
2023-01-09T23:39:01.740Z,99590.50
2023-01-09T23:41:29.039Z,99578.50
2023-01-09T23:43:56.174Z,99585.38
2023-01-09T23:46:23.641Z,99584.66
2023-01-09T23:48:51.195Z,99575.28
2023-01-09T23:51:18.439Z,99569.41
2023-01-09T23:53:45.529Z,99567.25
2023-01-09T23:56:12.710Z,99574.63
2023-01-09T23:58:39.768Z,99569.13
